Time;durP1;ratioP1;P1;durP2;ratioP2;P2;SDS_P1;SDS_P2;PMS_P1;PMS_P2;Temp;Humidity;BMP_temperature;BMP_pressure;BME280_temperature;BME280_humidity;BME280_pressure;Samples;Min_cycle;Max_cycle;Signal;HPM_P1;HPM_P2
2023/08/03 00:00:18;;;;;;;2.95;1.27;;;;;;;18.10;74.86;98595.88;31088216;28;118775;-69
2023/08/03 00:15:19;;;;;;;3.50;1.02;;;;;;;18.34;76.01;98569.31;31086825;28;97180;-67
2023/08/03 00:30:19;;;;;;;2.75;1.05;;;;;;;18.53;76.24;98536.53;31085616;28;97508;-70
2023/08/03 00:45:20;;;;;;;2.58;1.20;;;;;;;18.59;76.61;98563.25;31083415;28;96771;-67
2023/08/03 01:00:20;;;;;;;3.03;1.38;;;;;;;18.61;76.95;98547.59;31082357;28;97149;-70
2023/08/03 01:15:21;;;;;;;6.32;1.35;;;;;;;18.51;77.41;98527.91;31094382;28;97530;-69
2023/08/03 01:30:21;;;;;;;2.53;1.27;;;;;;;18.47;77.87;98533.00;31102198;28;97890;-69
2023/08/03 01:45:21;;;;;;;3.65;1.48;;;;;;;18.38;78.26;98550.75;31101167;28;96740;-70
2023/08/03 02:00:24;;;;;;;3.20;1.52;;;;;;;18.34;78.50;98534.28;31099962;28;96750;-72
2023/08/03 02:15:24;;;;;;;3.20;1.80;;;;;;;18.39;78.91;98526.22;31098156;28;97166;-69
2023/08/03 02:30:24;;;;;;;3.28;1.55;;;;;;;18.43;79.19;98553.47;31095020;28;109933;-70
2023/08/03 02:45:25;;;;;;;5.32;1.67;;;;;;;18.42;78.90;98546.44;31095687;28;96706;-72
2023/08/03 03:00:25;;;;;;;3.08;1.60;;;;;;;18.31;79.10;98583.31;31094865;28;97031;-70
2023/08/03 03:15:25;;;;;;;3.25;1.30;;;;;;;18.34;78.54;98604.34;31091915;28;99802;-70
2023/08/03 03:30:25;;;;;;;3.08;1.92;;;;;;;18.55;78.10;98637.66;31088083;28;107953;-69
2023/08/03 03:45:26;;;;;;;2.67;2.08;;;;;;;18.70;76.84;98542.53;31089193;28;110822;-68
2023/08/03 04:00:26;;;;;;;2.33;1.92;;;;;;;18.75;76.42;98677.44;31088270;28;96689;-70
2023/08/03 04:15:27;;;;;;;2.50;1.60;;;;;;;18.73;76.11;98638.31;31084778;28;97097;-69
2023/08/03 04:30:27;;;;;;;2.38;1.65;;;;;;;18.68;75.59;98624.78;31076775;28;97166;-65
2023/08/03 04:45:28;;;;;;;4.80;1.88;;;;;;;18.74;75.39;98704.66;31060984;28;97039;-63
2023/08/03 05:00:28;;;;;;;4.03;2.47;;;;;;;18.83;74.92;98681.50;31062594;28;97174;-66
2023/08/03 05:15:28;;;;;;;3.90;1.65;;;;;;;18.86;73.76;98707.97;31057480;28;98371;-67
2023/08/03 05:30:28;;;;;;;2.63;1.25;;;;;;;18.87;73.00;98661.03;31056460;28;112567;-70
2023/08/03 05:45:49;;;;;;;1.48;1.10;;;;;;;19.19;71.86;98684.41;31056665;28;109049;-70
2023/08/03 06:00:50;;;;;;;7.00;1.20;;;;;;;19.68;70.21;98750.72;31073890;28;97222;-72
2023/08/03 06:15:50;;;;;;;1.67;0.90;;;;;;;19.80;69.01;98758.63;31083583;28;98179;-71
2023/08/03 06:30:52;;;;;;;1.73;0.90;;;;;;;20.04;68.29;98791.41;31074507;28;97847;-67
2023/08/03 06:45:53;;;;;;;4.97;1.23;;;;;;;20.10;66.33;98779.50;31072131;28;97623;-67
2023/08/03 07:00:54;;;;;;;10.17;1.67;;;;;;;20.01;65.81;98794.66;31071743;28;97359;-70
2023/08/03 07:15:54;;;;;;;2.30;1.00;;;;;;;19.82;65.43;98753.78;31073283;28;97669;-67
2023/08/03 07:30:55;;;;;;;4.03;1.40;;;;;;;20.06;64.13;98745.19;31092054;28;96853;-68
2023/08/03 07:45:55;;;;;;;1.83;0.87;;;;;;;20.60;61.65;98766.31;31088241;28;97790;-69
2023/08/03 08:01:05;;;;;;;2.17;1.17;;;;;;;21.20;59.95;98800.09;31092243;28;97340;-70
2023/08/03 08:16:08;;;;;;;2.37;1.07;;;;;;;22.18;56.13;98819.50;31089575;27;98271;-71
2023/08/03 08:31:08;;;;;;;3.20;0.90;;;;;;;21.88;55.57;98783.31;31103061;28;97721;-67
2023/08/03 08:46:09;;;;;;;2.88;0.90;;;;;;;21.93;55.56;98768.94;31081480;28;97366;-68
2023/08/03 09:01:09;;;;;;;3.65;0.80;;;;;;;22.61;54.41;98779.06;31079374;28;97260;-64
2023/08/03 09:16:21;;;;;;;;;;;;;;;23.79;49.82;98798.75;31081358;28;97035;-68
2023/08/03 09:31:24;;;;;;;2.30;1.00;;;;;;;24.06;48.88;98834.59;31082969;28;97359;-66
2023/08/03 09:46:27;;;;;;;2.60;0.77;;;;;;;24.49;47.92;98859.03;31101373;28;97527;-67
2023/08/03 10:01:28;;;;;;;3.43;0.83;;;;;;;24.02;47.89;98830.84;31100650;28;97469;-69
2023/08/03 10:16:31;;;;;;;1.03;0.67;;;;;;;24.26;47.00;98823.47;31096455;28;98010;-69
2023/08/03 10:31:32;;;;;;;3.10;1.13;;;;;;;24.61;43.68;98824.03;31120874;28;97544;-70
2023/08/03 10:46:34;;;;;;;2.47;0.70;;;;;;;26.50;39.82;98817.09;31052499;28;97364;-73
2023/08/03 11:01:35;;;;;;;2.83;0.67;;;;;;;26.60;38.49;98819.59;30958768;28;97463;-71
2023/08/03 11:16:36;;;;;;;1.85;0.80;;;;;;;26.94;36.91;98829.16;30960652;28;99936;-68
2023/08/03 11:31:38;;;;;;;2.08;0.63;;;;;;;27.72;35.71;98843.50;30962651;28;97441;-69
2023/08/03 11:46:39;;;;;;;1.57;0.77;;;;;;;28.19;34.77;98850.06;31077670;28;97533;-74
2023/08/03 12:01:47;;;;;;;11.95;1.63;;;;;;;27.02;36.76;98853.00;31073910;28;97274;-74
2023/08/03 12:16:47;;;;;;;2.30;0.70;;;;;;;26.02;38.25;98852.00;31073604;28;97522;-69
2023/08/03 12:31:48;;;;;;;1.77;0.60;;;;;;;25.56;39.39;98842.03;31067759;28;117310;-70
2023/08/03 12:46:48;;;;;;;3.22;0.73;;;;;;;26.32;38.86;98846.97;31072202;28;97246;-70
2023/08/03 13:01:50;;;;;;;2.10;0.65;;;;;;;26.48;39.24;98858.38;31071460;28;97081;-71
2023/08/03 13:16:50;;;;;;;2.37;0.60;;;;;;;27.12;38.16;98853.84;31001041;28;97184;-65
2023/08/03 13:31:52;;;;;;;2.72;0.70;;;;;;;26.80;37.16;98874.84;30955104;28;97097;-65
2023/08/03 13:46:53;;;;;;;2.20;0.70;;;;;;;26.74;38.38;98906.16;30950657;28;97255;-68
2023/08/03 14:01:53;;;;;;;1.55;0.43;;;;;;;26.13;38.94;98890.78;30947921;28;97352;-65
2023/08/03 14:16:54;;;;;;;1.02;0.35;;;;;;;25.96;37.82;98902.31;30994217;28;97358;-66
2023/08/03 14:31:54;;;;;;;2.65;0.50;;;;;;;25.67;37.74;98897.97;30974650;28;97325;-65
2023/08/03 14:46:55;;;;;;;3.83;0.30;;;;;;;25.63;35.85;98937.88;30972786;28;102565;-73
2023/08/03 15:01:58;;;;;;;2.28;0.40;;;;;;;25.61;35.87;98904.63;31019500;28;97937;-67
2023/08/03 15:16:58;;;;;;;3.77;0.43;;;;;;;25.65;33.70;98908.34;30962816;28;96897;-67
2023/08/03 15:31:58;;;;;;;3.08;0.40;;;;;;;25.57;33.29;98949.97;31058417;28;108416;-67
2023/08/03 15:46:59;;;;;;;0.98;0.30;;;;;;;25.46;33.11;98953.97;31123589;28;101929;-68
2023/08/03 16:02:00;;;;;;;1.33;0.30;;;;;;;25.27;33.75;98949.34;31122540;27;97298;-63
2023/08/03 16:17:02;;;;;;;1.98;0.20;;;;;;;24.92;34.22;98969.78;31071765;28;110191;-63
2023/08/03 16:32:03;;;;;;;3.17;0.20;;;;;;;24.71;34.85;98975.53;31075769;28;97316;-64
2023/08/03 16:47:03;;;;;;;1.75;0.32;;;;;;;24.35;35.78;98991.53;31071750;28;97352;-63
2023/08/03 17:02:04;;;;;;;3.35;0.63;;;;;;;24.33;36.24;98998.06;31071405;28;97121;-64
2023/08/03 17:17:05;;;;;;;0.85;0.38;;;;;;;23.91;36.85;99017.84;31072514;28;97360;-63
2023/08/03 17:32:06;;;;;;;0.53;0.40;;;;;;;23.52;37.90;99016.78;31071516;28;97526;-64
2023/08/03 17:47:06;;;;;;;1.55;0.30;;;;;;;23.33;38.61;99032.97;31068409;28;97330;-64
2023/08/03 18:02:07;;;;;;;4.95;0.98;;;;;;;23.04;39.32;99051.91;30978595;28;97314;-63
2023/08/03 18:17:07;;;;;;;1.38;0.50;;;;;;;22.67;40.20;99064.03;30969062;28;97026;-63
2023/08/03 18:32:07;;;;;;;;;;;;;;;22.24;41.22;99094.22;30966089;28;114243;-65
2023/08/03 18:47:08;;;;;;;0.60;0.30;;;;;;;21.85;42.33;99092.91;30971467;28;97213;-63
2023/08/03 19:02:08;;;;;;;0.73;0.23;;;;;;;21.58;42.98;99145.50;31049711;28;104637;-64
2023/08/03 19:17:08;;;;;;;1.67;0.43;;;;;;;21.24;43.94;99167.59;31091821;28;97086;-64
2023/08/03 19:32:09;;;;;;;2.97;0.57;;;;;;;20.76;45.19;99191.19;31090038;28;97506;-62
2023/08/03 19:47:09;;;;;;;2.27;0.50;;;;;;;20.43;46.17;99206.66;31089621;28;111425;-65
2023/08/03 20:02:09;;;;;;;1.50;0.40;;;;;;;20.10;47.04;99222.06;31086984;28;106287;-63
2023/08/03 20:17:11;;;;;;;1.87;0.50;;;;;;;19.83;47.94;99222.88;31085534;28;97079;-63
2023/08/03 20:32:12;;;;;;;1.10;0.57;;;;;;;19.59;49.06;99230.47;31085304;28;97185;-62
2023/08/03 20:47:12;;;;;;;3.53;0.80;;;;;;;19.26;51.73;99246.53;31085933;28;97139;-66
2023/08/03 21:02:12;;;;;;;3.47;1.40;;;;;;;18.82;56.86;99273.44;31084049;28;97201;-63
2023/08/03 21:17:13;;;;;;;3.67;1.35;;;;;;;18.43;59.47;99281.44;31080005;28;97234;-67
2023/08/03 21:32:13;;;;;;;3.65;1.38;;;;;;;18.16;62.60;99284.75;31091442;28;97147;-62
2023/08/03 21:47:13;;;;;;;2.28;1.20;;;;;;;17.84;64.20;99289.81;31092321;28;97387;-62
2023/08/03 22:02:14;;;;;;;4.78;1.42;;;;;;;17.58;65.37;99302.78;31100381;28;96715;-63
2023/08/03 22:17:14;;;;;;;3.47;1.48;;;;;;;17.40;66.95;99318.03;31099496;28;98442;-65
2023/08/03 22:32:15;;;;;;;3.75;1.48;;;;;;;17.19;68.15;99332.88;31096838;28;96766;-61
2023/08/03 22:47:15;;;;;;;5.03;1.65;;;;;;;16.95;68.86;99345.53;31096236;28;97139;-62
2023/08/03 23:02:15;;;;;;;6.88;1.45;;;;;;;16.74;69.67;99325.34;31094767;28;97345;-62
2023/08/03 23:17:16;;;;;;;6.53;1.70;;;;;;;16.53;70.71;99354.44;31095012;28;96645;-61
2023/08/03 23:32:16;;;;;;;3.67;1.40;;;;;;;16.51;71.33;99348.47;31092104;28;97217;-61
2023/08/03 23:47:16;;;;;;;6.28;1.38;;;;;;;16.51;71.24;99358.38;31090846;28;97075;-62
